ADDS METAR Data INFO
IDs: Format: Raw Decoded Include TAF

Data at: 0856 UTC 19 Jun 2018

KARB 190853Z AUTO 36005KT 10SM BKN019 OVC031 21/19 A2998 RMK AO2 SLP146 60000 T02060194 53009
KARB 190837Z AUTO 01006KT 10SM FEW019 SCT026 OVC031 21/19 A2998 RMK AO2 T02060194
KARB 190753Z AUTO 02006KT 10SM FEW006 BKN015 OVC022 21/20 A2997 RMK AO2 RAB36E45 SLP139 P0000 T02110200
KARB 190750Z AUTO 02006KT 9SM SCT006 BKN015 OVC020 21/20 A2997 RMK AO2 RAB36E45 P0000
KARB 190653Z AUTO 05004KT 6SM BR BKN007 OVC012 22/21 A2997 RMK AO2 CIG 005V009 SLP139 T02170211
KARB 190641Z AUTO 03005KT 9SM BKN009 OVC015 22/21 A2996 RMK AO2 CIG 006V013 T02220211
KARB 190553Z AUTO 33009KT 10SM BKN012 OVC038 23/22 A2996 RMK AO2 SLP136 60026 T02330217 10311 20233 53010
KARB 190453Z AUTO 30005KT 10SM BKN010 OVC016 24/23 A2995 RMK AO2 CIG 008V014 SLP133 T02390228 403390228
KARB 190433Z AUTO 32006KT 10SM BKN011 BKN095 OVC110 24/23 A2993 RMK AO2 T02390228
KARB 190353Z AUTO 36007KT 10SM SCT029 BKN042 OVC120 24/23 A2993 RMK AO2 LTG DSNT E TSE11 SLP127 T02390228
KARB 190336Z AUTO 34007KT 10SM FEW024 SCT032 BKN041 24/23 A2993 RMK AO2 LTG DSNT E TSE11 T02390233
KARB 190317Z AUTO 31008KT 10SM VCTS FEW048 SCT065 BKN085 24/23 A2993 RMK AO2 LTG DSNT NE-SE TSE11 T02390233
KARB 190253Z AUTO 28006KT 10SM TS SCT031 BKN045 OVC100 23/22 A2993 RMK AO2 LTG DSNT NE-SE RAB13E53 TSB23 SLP125 P0026 60026 T02330222 53018
KARB 190245Z AUTO 30004G14KT 3SM TSRA BR SCT030 BKN037 OVC100 23/22 A2992 RMK AO2 LTG DSNT NE-SE RAB13 TSB23 P0026 T02330222
KARB 190235Z AUTO 32012G20KT 1 3/4SM +TSRA BR FEW017 BKN032 OVC042 24/22 A2992 RMK AO2 LTG DSNT ALQDS RAB13 TSB23 P0019 T02390222
KARB 190223Z AUTO 19007G15KT 6SM -TSRA SCT032 BKN045 OVC060 26/23 A2990 RMK AO2 LTG DSNT W AND NW RAB13 TSB23 P0000 T02610228
KARB 190153Z AUTO 33009KT 10SM BKN055 29/22 A2988 RMK AO2 LTG DSNT ALQDS SLP109 T02890222
KARB 190053Z AUTO 32006KT 10SM FEW065 30/22 A2987 RMK AO2 LTG DSNT SW SLP108 T03000217
KARB 182353Z AUTO 28008KT 10SM SCT065 31/22 A2987 RMK AO2 LTG DSNT S SLP107 T03110217 10339 20311 53001
KARB 182253Z AUTO 25010G17KT 10SM FEW065 33/22 A2987 RMK AO2 SLP107 T03280217
KARB 182153Z AUTO 23012KT 10SM CLR 33/23 A2987 RMK AO2 SLP105 T03280228
KARB 182053Z 21010G20KT 10SM FEW060 33/24 A2987 RMK AO2 PK WND 23027/2004 SLP107 T03280239 56019
KARB 181953Z 23014G26KT 10SM FEW049 33/22 A2989 RMK AO2 PK WND 22026/1949 SLP112 T03330217
KARB 181853Z 22011KT 10SM SCT048 32/23 A2991 RMK AO2 SLP120 T03220228
KARB 181753Z 25011KT 10SM SCT043 32/23 A2993 RMK AO2 SLP126 T03170228 10322 20256 58015
KARB 181653Z 25009KT 10SM BKN043 BKN050 31/23 A2995 RMK AO2 SLP135 T03110228
KARB 181553Z 22014G22KT 10SM FEW037 32/23 A2997 RMK AO2 SLP140 T03220233
KARB 181453Z 24011G20KT 10SM CLR 31/23 A2997 RMK AO2 SLP141 T03110233 50000
KARB 181353Z 23011KT 10SM CLR 29/23 A2998 RMK AO2 SLP145 T02890228
KARB 181253Z 21008KT 10SM CLR 27/23 A2997 RMK AO2 SLP142 T02720233
KARB 181153Z 21006KT 9SM CLR 26/23 A2997 RMK AO2 SLP141 T02560228 10256 20228 58000
KARB 181053Z AUTO 19007KT 9SM CLR 24/22 A2997 RMK AO2 SLP142 T02440222
KARB 180953Z AUTO 17006KT 10SM CLR 23/22 A2998 RMK AO2 SLP142 T02330217
KARB 180853Z AUTO 19005KT 10SM CLR 23/21 A2997 RMK AO2 SLP141 T02280211 56008
KARB 180753Z AUTO 19004KT 10SM CLR 24/21 A2998 RMK AO2 SLP143 T02390211
KARB 180653Z AUTO 20005KT 10SM CLR 23/21 A2999 RMK AO2 SLP147 T02330206
KARB 180553Z AUTO 21005KT 10SM CLR 24/21 A3000 RMK AO2 SLP150 T02440206 10311 20233 50000
KARB 180453Z AUTO 21005KT 10SM CLR 25/21 A3001 RMK AO2 SLP153 T02500206 403390161
KARB 180353Z AUTO 22006KT 10SM CLR 25/21 A3000 RMK AO2 SLP152 T02500206
KARB 180253Z AUTO 19004KT 10SM CLR 24/20 A3000 RMK AO2 SLP150 T02390200 53008
KARB 180153Z AUTO 23004KT 10SM CLR 24/21 A2998 RMK AO2 SLP146 T02440206
KARB 180053Z AUTO 20004KT 10SM CLR 28/20 A2997 RMK AO2 SLP140 T02830200
KARB 172353Z 20006KT 10SM CLR 31/20 A2998 RMK AO2 SLP143 T03110200 10339 20311 56009
KARB 172253Z 22009KT 10SM CLR 32/19 A2998 RMK AO2 SLP147 T03220194
KARB 172153Z 21011KT 10SM CLR 33/20 A2999 RMK AO2 SLP150 T03330200